Terminal Aerodrome Forecast
Issued by NWS

Home | Current Version | Previous Version | Text Only | Print | Product List | Glossary On
Versions: 1 2 3 4 5 6 7 8 9 10 11 12 13 14 15 16 17 18 19 20 21 22 23 24 25 26 27 28 29 30 31 32
686
FTUS43 KJKL 230524
TAFSME
TAF
KSME 230524Z 2306/2406 17009KT P6SM OVC060 WS020/19050KT
     FM231600 20012G22KT 6SM -RA OVC025 WS020/20055KT
     FM232100 24009KT 3SM RA OVC010
     FM240300 30007KT 2SM RA OVC003=

USA.gov is the U.S. government's official web portal to all federal, state and local government web resources and services.